Time;durP1;ratioP1;P1;durP2;ratioP2;P2;SDS_P1;SDS_P2;PMS_P1;PMS_P2;Temp;Humidity;BMP_temperature;BMP_pressure;BME280_temperature;BME280_humidity;BME280_pressure;Samples;Min_cycle;Max_cycle;Signal;HPM_P1;HPM_P2
2023/11/30 00:02:16;;;;;;;5.00;3.80;;;21.80;73.00;;;;;;5029074;28;21000;-63
2023/11/30 00:04:43;;;;;;;4.70;4.17;;;21.80;73.00;;;;;;5022664;28;20466;-63
2023/11/30 00:07:12;;;;;;;4.33;3.93;;;21.80;73.10;;;;;;5023567;28;20454;-63
2023/11/30 00:09:40;;;;;;;4.57;3.70;;;21.80;73.00;;;;;;5021593;28;20545;-63
2023/11/30 00:12:07;;;;;;;5.40;3.87;;;21.80;73.00;;;;;;5032397;28;20476;-63
2023/11/30 00:14:34;;;;;;;5.47;4.40;;;21.80;73.00;;;;;;5024832;28;21293;-63
2023/11/30 00:17:02;;;;;;;3.77;3.37;;;21.70;72.90;;;;;;5016986;28;20464;-63
2023/11/30 00:19:28;;;;;;;4.43;3.67;;;21.70;72.90;;;;;;5021868;28;20902;-63
2023/11/30 00:21:55;;;;;;;4.97;4.00;;;21.70;72.90;;;;;;5022010;28;20457;-64
2023/11/30 00:24:22;;;;;;;5.13;4.00;;;21.70;72.90;;;;;;5023267;28;20470;-63
2023/11/30 00:26:50;;;;;;;5.33;3.80;;;21.70;72.90;;;;;;5018779;28;20449;-63
2023/11/30 00:29:16;;;;;;;4.67;4.17;;;21.70;73.00;;;;;;5023673;28;20464;-63
2023/11/30 00:31:43;;;;;;;5.43;4.07;;;21.70;72.90;;;;;;5021692;28;21338;-64
2023/11/30 00:34:10;;;;;;;3.83;3.47;;;21.70;72.90;;;;;;5026390;28;20461;-63
2023/11/30 00:36:36;;;;;;;4.17;3.50;;;21.70;72.90;;;;;;5022853;28;20458;-62
2023/11/30 00:39:04;;;;;;;4.53;3.60;;;21.70;73.00;;;;;;5019266;28;20463;-63
2023/11/30 00:41:31;;;;;;;5.43;4.17;;;21.70;72.90;;;;;;5019834;28;20474;-63
2023/11/30 00:43:59;;;;;;;4.10;3.20;;;21.70;72.90;;;;;;5017877;28;20471;-63
2023/11/30 00:46:25;;;;;;;6.13;3.40;;;21.70;73.00;;;;;;5015652;28;20466;-63
2023/11/30 00:48:52;;;;;;;4.20;3.60;;;21.70;72.90;;;;;;5016041;28;20460;-63
2023/11/30 00:51:19;;;;;;;4.80;3.37;;;21.70;73.00;;;;;;5019204;28;20462;-63
2023/11/30 00:53:46;;;;;;;2.97;2.67;;;21.70;73.10;;;;;;5025363;28;20466;-62
2023/11/30 00:56:12;;;;;;;5.27;3.90;;;21.70;73.00;;;;;;5020020;28;20458;-62
2023/11/30 00:58:39;;;;;;;4.77;3.87;;;21.70;73.00;;;;;;5021895;28;23054;-63
2023/11/30 01:01:07;;;;;;;3.33;3.00;;;21.70;73.00;;;;;;5020352;28;20477;-63
2023/11/30 01:03:34;;;;;;;3.30;3.00;;;21.70;73.00;;;;;;5021125;28;20462;-63
2023/11/30 01:06:01;;;;;;;4.20;3.70;;;21.70;73.00;;;;;;5024791;28;20465;-62
2023/11/30 01:08:27;;;;;;;4.25;3.30;;;21.60;72.80;;;;;;5019978;28;20462;-63
2023/11/30 01:10:54;;;;;;;4.30;3.90;;;21.70;73.00;;;;;;5013966;28;20210;-63
2023/11/30 01:13:21;;;;;;;3.60;3.10;;;21.70;73.00;;;;;;5024933;28;20975;-63
2023/11/30 01:15:48;;;;;;;3.40;3.00;;;21.70;73.00;;;;;;5023823;28;20187;-63
2023/11/30 01:18:16;;;;;;;7.87;3.80;;;21.70;73.00;;;;;;5012914;28;20467;-64
2023/11/30 01:20:43;;;;;;;3.50;2.67;;;21.60;72.90;;;;;;5021853;28;20937;-63
2023/11/30 01:23:09;;;;;;;4.53;3.70;;;21.60;72.90;;;;;;5022123;28;20465;-63
2023/11/30 01:25:36;;;;;;;4.47;3.93;;;21.60;72.90;;;;;;5022071;28;20458;-63
2023/11/30 01:28:03;;;;;;;3.60;2.53;;;21.60;72.90;;;;;;5018195;28;20468;-63
2023/11/30 01:30:30;;;;;;;3.77;3.20;;;21.70;73.10;;;;;;5024306;28;20465;-63
2023/11/30 01:32:56;;;;;;;3.45;3.15;;;21.60;72.90;;;;;;5024716;28;20468;-63
2023/11/30 01:35:28;;;;;;;4.40;4.00;;;21.60;72.90;;;;;;5023948;28;20220;-63
2023/11/30 01:37:55;;;;;;;4.93;3.57;;;21.60;72.90;;;;;;5013086;28;20194;-64
2023/11/30 01:40:22;;;;;;;4.33;3.40;;;21.60;72.90;;;;;;5018481;28;20681;-63
2023/11/30 01:42:49;;;;;;;3.20;2.90;;;21.60;73.70;;;;;;5024090;28;20465;-63
2023/11/30 01:45:16;;;;;;;3.73;3.07;;;21.60;72.90;;;;;;5025620;28;20694;-63
2023/11/30 01:47:44;;;;;;;2.85;2.55;;;21.60;72.90;;;;;;5026334;28;20465;-62
2023/11/30 01:50:11;;;;;;;3.90;3.33;;;21.60;72.90;;;;;;5016371;28;20195;-62
2023/11/30 01:52:39;;;;;;;4.00;3.65;;;21.60;73.00;;;;;;5020852;28;20196;-63
2023/11/30 01:55:08;;;;;;;3.40;3.00;;;21.60;72.90;;;;;;5022994;28;21174;-62
2023/11/30 01:57:36;;;;;;;3.07;2.77;;;21.60;73.80;;;;;;5026934;28;20454;-63
2023/11/30 02:00:04;;;;;;;4.23;3.27;;;21.60;72.90;;;;;;5021750;28;20473;-62
2023/11/30 02:02:31;;;;;;;3.60;3.13;;;21.60;72.90;;;;;;5022914;28;20466;-63
2023/11/30 02:04:58;;;;;;;3.38;3.08;;;21.60;73.00;;;;;;5021230;28;20221;-63
2023/11/30 02:07:24;;;;;;;3.97;2.72;;;21.60;72.90;;;;;;5021803;28;20215;-64
2023/11/30 02:09:53;;;;;;;4.30;3.67;;;21.60;72.90;;;;;;5020509;28;20902;-63
2023/11/30 02:12:19;;;;;;;3.60;3.30;;;21.60;72.90;;;;;;5025699;28;20195;-63
2023/11/30 02:14:46;;;;;;;2.88;2.55;;;21.60;72.90;;;;;;5025642;28;20965;-63
2023/11/30 02:17:13;;;;;;;3.70;2.85;;;21.60;72.90;;;;;;5014723;28;20191;-62
2023/11/30 02:19:40;;;;;;;3.20;2.90;;;21.60;72.90;;;;;;5024631;28;20683;-62
2023/11/30 02:22:08;;;;;;;3.07;2.77;;;21.60;72.90;;;;;;5023845;28;20478;-63
2023/11/30 02:24:35;;;;;;;4.77;4.23;;;21.60;73.10;;;;;;5023956;28;20477;-63
2023/11/30 02:27:02;;;;;;;3.20;2.57;;;21.50;73.00;;;;;;5020460;28;20464;-62
2023/11/30 02:29:28;;;;;;;2.80;2.50;;;21.50;73.30;;;;;;5017927;28;20450;-64
2023/11/30 02:31:55;;;;;;;3.17;2.87;;;21.60;73.40;;;;;;5022985;28;20493;-63
2023/11/30 02:34:22;;;;;;;4.20;3.03;;;21.60;73.30;;;;;;5025771;28;20462;-62
2023/11/30 02:36:48;;;;;;;3.20;2.47;;;21.60;73.30;;;;;;5027445;28;20489;-63
2023/11/30 02:39:16;;;;;;;3.80;2.87;;;21.50;73.20;;;;;;5030369;28;20464;-63
2023/11/30 02:41:43;;;;;;;3.53;2.70;;;21.60;73.40;;;;;;5029613;28;20479;-63
2023/11/30 02:44:10;;;;;;;3.00;2.70;;;21.60;73.30;;;;;;5026428;28;20465;-63
2023/11/30 02:46:37;;;;;;;2.93;2.20;;;21.60;73.30;;;;;;5029620;28;20460;-63
2023/11/30 02:49:03;;;;;;;2.57;2.37;;;21.50;73.20;;;;;;5016027;28;20458;-64
2023/11/30 02:51:30;;;;;;;2.93;2.67;;;21.50;73.20;;;;;;5025828;28;21052;-64
2023/11/30 02:53:57;;;;;;;4.10;3.13;;;21.60;73.40;;;;;;5029739;28;20470;-63
2023/11/30 02:56:25;;;;;;;3.50;2.37;;;21.60;73.30;;;;;;5023033;28;20462;-63
2023/11/30 02:58:52;;;;;;;3.40;2.80;;;21.60;73.30;;;;;;5024492;28;20793;-64
2023/11/30 03:01:18;;;;;;;4.73;2.67;;;21.60;73.30;;;;;;5014730;28;20478;-63
2023/11/30 03:03:45;;;;;;;3.10;2.20;;;21.50;73.20;;;;;;5020805;28;20462;-63
2023/11/30 03:06:12;;;;;;;3.10;2.80;;;21.60;73.30;;;;;;5022324;28;20473;-63
2023/11/30 03:08:39;;;;;;;2.90;2.70;;;21.60;73.40;;;;;;5019781;28;20462;-63
2023/11/30 03:11:06;;;;;;;2.90;2.60;;;21.50;73.20;;;;;;5017411;28;20465;-63
2023/11/30 03:13:34;;;;;;;2.80;2.50;;;21.60;73.40;;;;;;5021501;28;20462;-64
2023/11/30 03:16:01;;;;;;;2.50;2.27;;;21.50;73.30;;;;;;5020581;28;20454;-64
2023/11/30 03:18:27;;;;;;;2.73;2.40;;;21.50;73.30;;;;;;5022374;28;20461;-63
2023/11/30 03:20:54;;;;;;;2.83;2.60;;;21.50;73.30;;;;;;5019162;28;20477;-63
2023/11/30 03:23:21;;;;;;;2.50;2.20;;;21.60;73.40;;;;;;5027696;28;20462;-63
2023/11/30 03:25:47;;;;;;;3.67;2.63;;;21.50;73.30;;;;;;5026940;28;21011;-64
2023/11/30 03:28:14;;;;;;;3.27;2.23;;;21.50;73.30;;;;;;5033492;28;20464;-63
2023/11/30 03:30:42;;;;;;;2.23;2.03;;;21.50;73.30;;;;;;5027908;28;20742;-64
2023/11/30 03:33:09;;;;;;;2.60;2.37;;;21.50;73.30;;;;;;5018487;28;20546;-63
2023/11/30 03:35:36;;;;;;;3.23;2.67;;;21.50;73.30;;;;;;5026075;28;20466;-63
2023/11/30 03:38:02;;;;;;;2.43;2.23;;;21.50;73.30;;;;;;5029496;28;20470;-63
2023/11/30 03:40:29;;;;;;;2.90;2.50;;;21.50;73.40;;;;;;5026115;28;20485;-64
2023/11/30 03:42:56;;;;;;;2.23;2.03;;;21.50;73.30;;;;;;5017347;28;20199;-64
2023/11/30 03:45:23;;;;;;;3.50;3.17;;;21.50;73.20;;;;;;5031174;28;20472;-63
2023/11/30 03:47:51;;;;;;;3.78;2.97;;;21.50;73.40;;;;;;5029475;28;20461;-63
2023/11/30 03:50:17;;;;;;;2.40;2.20;;;21.50;73.30;;;;;;5021471;28;20834;-64
2023/11/30 03:52:44;;;;;;;3.30;2.47;;;21.50;73.40;;;;;;5028523;28;20458;-64
2023/11/30 03:55:11;;;;;;;3.33;2.40;;;21.50;73.40;;;;;;5024092;28;21206;-64
2023/11/30 03:57:37;;;;;;;2.63;2.43;;;21.50;73.30;;;;;;5029726;28;20461;-63
2023/11/30 04:00:07;;;;;;;2.80;2.50;;;21.50;73.30;;;;;;5023926;28;20831;-63
2023/11/30 04:02:34;;;;;;;2.83;2.43;;;21.50;73.30;;;;;;5023552;28;20477;-63
2023/11/30 04:05:05;;;;;;;2.40;2.20;;;21.50;73.30;;;;;;5023561;28;20481;-64
2023/11/30 04:07:32;;;;;;;2.43;2.10;;;21.50;73.30;;;;;;5033712;28;20499;-64
2023/11/30 04:09:58;;;;;;;2.43;2.23;;;21.50;73.30;;;;;;5027491;28;20462;-64
2023/11/30 04:12:25;;;;;;;3.37;2.30;;;21.50;73.30;;;;;;5025407;28;20565;-64
2023/11/30 04:14:52;;;;;;;2.60;2.23;;;21.50;73.30;;;;;;5026877;28;20854;-64
2023/11/30 04:17:19;;;;;;;2.50;2.10;;;21.50;73.30;;;;;;5027838;28;20699;-64
2023/11/30 04:19:45;;;;;;;2.05;1.80;;;21.50;73.30;;;;;;5028592;28;20961;-63
2023/11/30 04:22:13;;;;;;;2.10;1.73;;;21.50;73.30;;;;;;5030962;28;20234;-63
2023/11/30 04:24:40;;;;;;;2.50;1.70;;;21.50;73.30;;;;;;5027570;28;20537;-64
2023/11/30 04:27:07;;;;;;;2.90;2.30;;;21.50;73.30;;;;;;5025003;28;20454;-63
2023/11/30 04:29:34;;;;;;;2.20;2.00;;;21.50;73.40;;;;;;5025212;28;20481;-63
2023/11/30 04:32:01;;;;;;;2.83;2.63;;;21.50;73.40;;;;;;5021357;28;20493;-64
2023/11/30 04:34:28;;;;;;;2.70;2.30;;;21.50;73.40;;;;;;5021333;28;20499;-64
2023/11/30 04:36:55;;;;;;;2.03;1.87;;;21.50;73.40;;;;;;5023461;28;20469;-62
2023/11/30 04:39:23;;;;;;;2.58;2.30;;;21.50;73.40;;;;;;5025339;28;20457;-65
2023/11/30 04:41:51;;;;;;;2.80;2.57;;;21.50;73.40;;;;;;5022864;28;20222;-63
2023/11/30 04:44:20;;;;;;;3.10;2.90;;;21.50;73.40;;;;;;5026166;28;20454;-63
2023/11/30 04:46:46;;;;;;;3.60;2.63;;;21.50;73.40;;;;;;5026895;28;20472;-63
2023/11/30 04:49:13;;;;;;;2.60;2.00;;;21.50;73.40;;;;;;5023580;28;20463;-63
2023/11/30 04:51:40;;;;;;;2.37;2.17;;;21.50;73.50;;;;;;5028816;28;20466;-63
2023/11/30 04:54:07;;;;;;;2.55;1.88;;;21.40;73.40;;;;;;5026966;28;20461;-64
2023/11/30 04:56:35;;;;;;;2.13;1.92;;;21.50;73.50;;;;;;5028661;28;20192;-64
2023/11/30 04:59:02;;;;;;;3.33;2.40;;;21.50;73.50;;;;;;5019395;28;20207;-63
2023/11/30 05:01:29;;;;;;;3.67;2.70;;;21.50;73.50;;;;;;5011108;28;20563;-64
2023/11/30 05:03:57;;;;;;;3.40;2.07;;;21.50;73.50;;;;;;5028496;28;20717;-65
2023/11/30 05:06:24;;;;;;;2.93;2.03;;;21.50;73.50;;;;;;5031820;28;20830;-64
2023/11/30 05:08:50;;;;;;;2.23;2.03;;;21.50;73.50;;;;;;5033600;28;20465;-65
2023/11/30 05:11:17;;;;;;;2.20;1.97;;;21.50;73.50;;;;;;5027093;28;20822;-64
2023/11/30 05:13:45;;;;;;;2.60;2.40;;;21.50;73.50;;;;;;5024450;28;21242;-64
2023/11/30 05:16:12;;;;;;;2.90;2.20;;;21.50;73.50;;;;;;5028188;28;20442;-64
2023/11/30 05:18:39;;;;;;;2.30;1.97;;;21.40;73.40;;;;;;5020810;28;20461;-64
2023/11/30 05:21:06;;;;;;;2.00;1.70;;;21.50;73.60;;;;;;5027047;28;20485;-65
2023/11/30 05:23:33;;;;;;;2.60;1.90;;;21.50;74.40;;;;;;5025718;28;20834;-64
2023/11/30 05:26:01;;;;;;;2.37;2.17;;;21.40;74.10;;;;;;5023340;28;20462;-64
2023/11/30 05:28:27;;;;;;;2.27;2.07;;;21.40;73.40;;;;;;5025910;28;20492;-64
2023/11/30 05:30:55;;;;;;;2.00;1.60;;;21.50;73.50;;;;;;5022157;28;20469;-64
2023/11/30 05:33:24;;;;;;;2.00;1.80;;;21.50;73.60;;;;;;5026475;28;20459;-63
2023/11/30 05:35:51;;;;;;;2.10;1.90;;;21.50;73.50;;;;;;5021140;28;20454;-63
2023/11/30 05:38:18;;;;;;;2.00;1.77;;;21.40;73.40;;;;;;5024951;28;20465;-64
2023/11/30 05:40:45;;;;;;;2.53;1.95;;;21.50;73.50;;;;;;5017437;28;20485;-64
2023/11/30 05:43:12;;;;;;;3.30;2.10;;;21.50;73.50;;;;;;5023950;28;20282;-65
2023/11/30 05:45:39;;;;;;;2.23;2.03;;;21.50;73.50;;;;;;5027913;28;20450;-63
2023/11/30 05:48:07;;;;;;;3.05;1.73;;;21.40;73.40;;;;;;5026293;28;20494;-64
2023/11/30 05:50:35;;;;;;;3.57;1.83;;;21.50;73.50;;;;;;5024602;28;20208;-64
2023/11/30 05:53:04;;;;;;;2.67;1.97;;;21.40;73.40;;;;;;5027917;28;20461;-64
2023/11/30 05:55:31;;;;;;;1.80;1.50;;;21.40;73.40;;;;;;5022337;28;20568;-64
2023/11/30 05:57:58;;;;;;;2.47;1.90;;;21.50;73.50;;;;;;5020289;28;20475;-64
2023/11/30 06:00:24;;;;;;;2.00;1.80;;;21.50;73.50;;;;;;5018341;28;20463;-63
2023/11/30 06:02:51;;;;;;;2.47;1.87;;;21.40;73.40;;;;;;5025876;28;20849;-64
2023/11/30 06:05:19;;;;;;;2.60;1.75;;;21.50;73.50;;;;;;5024019;28;20459;-63
2023/11/30 06:07:46;;;;;;;13.03;2.03;;;21.50;73.60;;;;;;5019867;28;20750;-64
2023/11/30 06:10:14;;;;;;;2.20;1.93;;;21.40;73.40;;;;;;5020239;28;20974;-64
2023/11/30 06:12:41;;;;;;;8.50;1.97;;;21.50;73.50;;;;;;5019305;28;20465;-64
2023/11/30 06:15:09;;;;;;;2.60;2.03;;;21.40;73.40;;;;;;5022597;28;20881;-63
2023/11/30 06:17:36;;;;;;;1.83;1.67;;;21.40;73.40;;;;;;5024715;28;20464;-64
2023/11/30 06:20:04;;;;;;;3.63;2.03;;;21.40;73.40;;;;;;5019950;28;20466;-63
2023/11/30 06:22:32;;;;;;;1.70;1.50;;;21.40;73.40;;;;;;5021040;28;20535;-64
2023/11/30 06:24:59;;;;;;;2.13;1.93;;;21.50;73.50;;;;;;5008991;28;20461;-63
2023/11/30 06:27:25;;;;;;;2.22;2.00;;;21.50;73.70;;;;;;5010523;28;20464;-63
2023/11/30 06:29:52;;;;;;;1.80;1.70;;;21.50;73.80;;;;;;5011748;28;20722;-63
2023/11/30 06:32:20;;;;;;;2.70;2.00;;;21.50;73.80;;;;;;5019311;28;20461;-61
2023/11/30 06:34:47;;;;;;;2.27;1.80;;;21.50;73.90;;;;;;5017707;28;20468;-63
2023/11/30 06:37:14;;;;;;;2.22;1.90;;;21.50;74.00;;;;;;5015635;28;21011;-62
2023/11/30 06:39:43;;;;;;;2.23;1.63;;;21.50;74.10;;;;;;5011793;28;20219;-63
2023/11/30 06:42:09;;;;;;;2.67;1.90;;;21.50;74.20;;;;;;5011977;28;20481;-65
2023/11/30 06:44:36;;;;;;;1.87;1.60;;;21.50;74.30;;;;;;5015170;28;21701;-67
2023/11/30 06:47:03;;;;;;;1.67;1.57;;;21.50;74.30;;;;;;5016021;28;20457;-66
2023/11/30 06:49:30;;;;;;;1.67;1.57;;;21.50;74.50;;;;;;5008029;28;20462;-70
2023/11/30 06:51:58;;;;;;;3.53;1.80;;;21.50;74.40;;;;;;5012919;28;20464;-69
2023/11/30 06:54:25;;;;;;;2.00;1.30;;;21.50;74.50;;;;;;5012963;28;21051;-68
2023/11/30 06:56:53;;;;;;;2.63;2.43;;;21.50;74.60;;;;;;5009764;28;21047;-66
2023/11/30 06:59:20;;;;;;;1.95;1.65;;;21.50;74.60;;;;;;5014952;28;20450;-65
2023/11/30 07:01:47;;;;;;;1.92;1.75;;;21.50;74.60;;;;;;5015504;28;21605;-65
2023/11/30 07:04:14;;;;;;;3.03;2.73;;;21.50;74.80;;;;;;5014693;28;20242;-66
2023/11/30 07:06:41;;;;;;;2.17;1.80;;;21.50;74.90;;;;;;5021879;28;20450;-65
2023/11/30 07:09:12;;;;;;;3.50;2.07;;;21.50;74.90;;;;;;5014748;28;21153;-65
2023/11/30 07:11:38;;;;;;;3.50;1.80;;;21.50;75.70;;;;;;5023686;28;20457;-70
2023/11/30 07:14:07;;;;;;;2.23;1.70;;;21.50;75.00;;;;;;5026880;28;20976;-73
2023/11/30 07:16:33;;;;;;;13.17;9.03;;;21.50;75.00;;;;;;5024191;28;21077;-70
2023/11/30 07:19:00;;;;;;;12.10;10.90;;;21.40;63.40;;;;;;5020903;28;20474;-69
2023/11/30 07:21:27;;;;;;;16.70;14.95;;;20.90;56.60;;;;;;5025439;28;20458;-74
2023/11/30 07:23:54;;;;;;;24.05;15.77;;;20.50;53.60;;;;;;5026440;28;20195;-67
2023/11/30 07:26:21;;;;;;;21.55;18.45;;;20.20;53.20;;;;;;5021754;28;20201;-71
2023/11/30 07:28:48;;;;;;;26.85;23.15;;;20.00;52.10;;;;;;5023766;28;20196;-70
2023/11/30 07:31:20;;;;;;;24.42;21.83;;;19.70;50.60;;;;;;5022213;28;20214;-66
2023/11/30 07:33:47;;;;;;;24.67;19.90;;;19.60;50.20;;;;;;5024005;28;20199;-66
2023/11/30 07:36:13;;;;;;;26.38;21.90;;;19.30;49.40;;;;;;5026899;28;20203;-65
2023/11/30 07:38:40;;;;;;;25.70;21.67;;;19.10;50.30;;;;;;5017048;28;20199;-66
2023/11/30 07:41:08;;;;;;;27.10;22.42;;;18.90;69.50;;;;;;5025605;28;20202;-69
2023/11/30 07:43:35;;;;;;;29.42;22.20;;;18.90;65.50;;;;;;5026767;28;20775;-66
2023/11/30 07:46:02;;;;;;;25.13;21.45;;;18.70;48.30;;;;;;5030029;28;20203;-68
2023/11/30 07:48:32;;;;;;;23.25;20.75;;;18.60;50.00;;;;;;5029142;28;20196;-66
2023/11/30 07:50:59;;;;;;;25.77;20.40;;;18.50;49.00;;;;;;5019507;28;20203;-64
2023/11/30 07:53:26;;;;;;;25.42;21.65;;;18.50;82.70;;;;;;5023812;28;20557;-68
2023/11/30 07:55:56;;;;;;;22.90;19.05;;;18.40;68.00;;;;;;5020529;28;20979;-69
2023/11/30 07:58:23;;;;;;;22.63;19.77;;;18.20;67.70;;;;;;5024683;28;20286;-68
2023/11/30 08:00:50;;;;;;;25.50;19.70;;;18.10;61.70;;;;;;5024695;28;20274;-66
2023/11/30 08:03:17;;;;;;;28.08;19.40;;;;;;;;;;5020432;28;20660;-66
2023/11/30 08:05:46;;;;;;;19.85;15.20;;;;;;;;;;5027673;28;20208;-67
2023/11/30 08:08:13;;;;;;;19.20;16.42;;;;;;;;;;5021308;28;20663;-67
2023/11/30 08:10:40;;;;;;;24.65;17.27;;;;;;;;;;5028249;28;20196;-67
2023/11/30 08:13:10;;;;;;;19.67;15.60;;;;;;;;;;5025663;28;20211;-65
2023/11/30 08:15:37;;;;;;;17.40;13.10;;;17.30;77.80;;;;;;5028193;28;20269;-66
2023/11/30 08:18:04;;;;;;;15.80;11.70;;;17.90;74.50;;;;;;5015330;28;20191;-67
2023/11/30 08:20:31;;;;;;;13.13;10.35;;;18.00;66.60;;;;;;5019167;28;20191;-61
2023/11/30 08:22:59;;;;;;;14.45;10.82;;;18.40;68.60;;;;;;5028254;28;20254;-62
2023/11/30 08:25:26;;;;;;;17.05;10.10;;;18.50;70.10;;;;;;5028898;28;20191;-63
2023/11/30 08:27:53;;;;;;;10.70;8.73;;;18.70;72.40;;;;;;5020219;28;20839;-63
2023/11/30 08:30:19;;;;;;;7.93;6.97;;;18.80;74.10;;;;;;5026392;28;20206;-65
2023/11/30 08:32:46;;;;;;;8.00;7.13;;;18.90;76.80;;;;;;5028686;28;20214;-65
2023/11/30 08:35:13;;;;;;;7.28;6.53;;;19.00;77.60;;;;;;5023003;28;20198;-65
2023/11/30 08:37:39;;;;;;;7.93;7.10;;;19.10;76.80;;;;;;5009235;28;20203;-63
2023/11/30 08:40:10;;;;;;;9.23;7.60;;;19.20;78.90;;;;;;5004874;28;20847;-61
2023/11/30 08:42:37;;;;;;;8.65;5.63;;;19.30;75.40;;;;;;5011218;28;20329;-65
2023/11/30 08:45:05;;;;;;;6.40;5.57;;;19.40;75.60;;;;;;5018155;28;20207;-63
2023/11/30 08:47:32;;;;;;;8.43;6.20;;;19.50;76.00;;;;;;5011894;28;20202;-64
2023/11/30 08:49:59;;;;;;;7.28;6.00;;;19.50;77.20;;;;;;5013876;28;20199;-67
2023/11/30 08:52:25;;;;;;;6.00;5.30;;;19.60;78.20;;;;;;5022347;28;20210;-66
2023/11/30 08:54:52;;;;;;;6.07;5.43;;;19.50;79.20;;;;;;5023635;28;20199;-63
2023/11/30 08:57:21;;;;;;;6.75;5.22;;;19.70;82.40;;;;;;5020869;28;20257;-62
2023/11/30 08:59:49;;;;;;;5.85;4.68;;;19.70;84.50;;;;;;5023281;28;20199;-63
2023/11/30 09:02:16;;;;;;;4.65;4.10;;;19.90;82.20;;;;;;5017293;28;20211;-64
2023/11/30 09:04:42;;;;;;;9.80;5.40;;;19.80;90.20;;;;;;5021624;28;20686;-63
2023/11/30 09:07:10;;;;;;;4.78;4.22;;;19.90;84.50;;;;;;5019415;28;20199;-63
2023/11/30 09:09:37;;;;;;;8.02;4.82;;;20.00;85.90;;;;;;5023612;28;20199;-65
2023/11/30 09:12:04;;;;;;;4.85;4.13;;;20.00;87.50;;;;;;5024969;28;20203;-62
2023/11/30 09:14:32;;;;;;;6.95;4.45;;;20.20;74.70;;;;;;5018021;28;20754;-63
2023/11/30 09:17:00;;;;;;;4.63;4.20;;;20.10;72.60;;;;;;5025442;28;20207;-64
2023/11/30 09:19:27;;;;;;;4.13;3.63;;;20.20;68.90;;;;;;5023254;28;20339;-60
2023/11/30 09:21:53;;;;;;;3.65;3.35;;;20.20;67.40;;;;;;5023475;28;20203;-61
2023/11/30 09:24:21;;;;;;;4.18;3.78;;;20.30;65.20;;;;;;5022861;28;20703;-62
2023/11/30 09:26:50;;;;;;;5.28;3.65;;;20.30;65.40;;;;;;5021028;28;20195;-63
2023/11/30 09:29:18;;;;;;;3.50;3.20;;;20.40;65.10;;;;;;5018034;28;20369;-64
2023/11/30 09:31:46;;;;;;;4.50;4.00;;;20.50;65.30;;;;;;5021407;28;20290;-65
2023/11/30 09:34:13;;;;;;;3.53;3.22;;;20.50;65.40;;;;;;5023032;28;20662;-65
2023/11/30 09:36:40;;;;;;;4.07;2.85;;;20.50;65.00;;;;;;5027078;28;20196;-64
2023/11/30 09:39:08;;;;;;;3.60;3.13;;;20.60;65.00;;;;;;5023434;28;20207;-63
2023/11/30 09:41:38;;;;;;;4.93;3.47;;;20.60;65.00;;;;;;5021895;28;20197;-64
2023/11/30 09:44:05;;;;;;;3.67;3.38;;;20.70;65.10;;;;;;5023103;28;20220;-64
2023/11/30 09:46:32;;;;;;;4.35;3.45;;;20.60;65.00;;;;;;5013999;28;20195;-64
2023/11/30 09:49:01;;;;;;;4.00;2.97;;;20.70;65.80;;;;;;5016783;28;20324;-58
2023/11/30 09:51:29;;;;;;;3.70;3.40;;;20.70;65.60;;;;;;5022008;28;20196;-59
2023/11/30 09:53:57;;;;;;;3.42;3.05;;;20.70;65.70;;;;;;5018662;28;20204;-61
2023/11/30 09:56:26;;;;;;;3.42;3.13;;;20.80;65.90;;;;;;5026177;28;20191;-65
2023/11/30 09:58:53;;;;;;;6.32;3.65;;;20.80;66.00;;;;;;5024712;28;20198;-64
2023/11/30 10:01:19;;;;;;;3.15;2.85;;;20.80;66.00;;;;;;5024323;28;20202;-64
2023/11/30 10:03:47;;;;;;;3.42;2.65;;;20.90;66.20;;;;;;5024641;28;20234;-64
2023/11/30 10:06:16;;;;;;;4.28;3.47;;;20.80;66.20;;;;;;5021424;28;20199;-63
2023/11/30 10:08:43;;;;;;;3.37;2.97;;;20.90;66.50;;;;;;5022452;28;20200;-65
2023/11/30 10:11:11;;;;;;;3.97;3.00;;;20.90;66.50;;;;;;5025117;28;20484;-64
2023/11/30 10:13:38;;;;;;;3.13;2.70;;;20.90;66.60;;;;;;5035894;28;20256;-64
2023/11/30 10:16:06;;;;;;;3.15;2.90;;;21.00;66.80;;;;;;5029424;28;20201;-64
2023/11/30 10:18:34;;;;;;;5.65;2.55;;;21.00;67.00;;;;;;5022965;28;20192;-66
2023/11/30 10:21:02;;;;;;;3.90;2.70;;;21.00;67.00;;;;;;5020678;28;20196;-66
2023/11/30 10:23:30;;;;;;;3.05;2.70;;;21.00;67.00;;;;;;5022099;28;21107;-66
2023/11/30 10:25:58;;;;;;;3.15;2.85;;;21.10;68.00;;;;;;5024752;28;20206;-66
2023/11/30 10:28:25;;;;;;;2.50;2.30;;;21.10;67.50;;;;;;5023889;28;20208;-67
2023/11/30 10:30:55;;;;;;;4.20;2.40;;;21.20;69.70;;;;;;5021215;28;20200;-65
2023/11/30 10:33:23;;;;;;;2.55;2.25;;;21.20;72.60;;;;;;5020215;28;20678;-67
2023/11/30 10:35:51;;;;;;;4.73;2.70;;;21.20;72.90;;;;;;5028191;28;20286;-67
2023/11/30 10:38:22;;;;;;;2.53;2.20;;;21.20;72.80;;;;;;5018504;28;20451;-67
2023/11/30 10:40:54;;;;;;;2.70;2.50;;;21.30;73.20;;;;;;5022082;28;20602;-64
2023/11/30 10:43:24;;;;;;;3.80;2.23;;;21.30;73.10;;;;;;5024653;28;20466;-64
2023/11/30 10:45:54;;;;;;;2.93;2.60;;;21.30;73.00;;;;;;5028402;28;20538;-68
2023/11/30 10:48:22;;;;;;;8.33;6.07;;;21.30;73.00;;;;;;5029402;28;20466;-68
2023/11/30 10:50:50;;;;;;;8.67;7.90;;;21.00;63.50;;;;;;5030427;28;20455;-67
2023/11/30 10:53:41;;;;;;;7.70;6.90;;;20.70;58.30;;;;;;5021693;28;21057;-65
2023/11/30 10:56:11;;;;;;;7.35;6.32;;;20.50;57.20;;;;;;5020322;28;20296;-65
2023/11/30 10:58:38;;;;;;;4.30;3.90;;;20.40;59.60;;;;;;5025349;28;20195;-64
2023/11/30 11:01:05;;;;;;;5.00;4.43;;;20.60;63.20;;;;;;5020506;28;20217;-64
2023/11/30 11:03:32;;;;;;;5.28;3.05;;;20.80;64.20;;;;;;5029544;28;20306;-61
2023/11/30 11:06:05;;;;;;;3.70;3.40;;;20.90;64.90;;;;;;5028576;28;20211;-62
2023/11/30 11:08:32;;;;;;;6.53;2.58;;;20.90;65.30;;;;;;5016844;28;20564;-64
2023/11/30 11:11:06;;;;;;;2.90;2.60;;;21.00;65.70;;;;;;5021836;28;20200;-63
2023/11/30 11:13:44;;;;;;;2.70;2.08;;;21.10;66.00;;;;;;5020805;28;20214;-64
2023/11/30 11:16:11;;;;;;;2.97;2.67;;;21.10;66.40;;;;;;5014114;28;20201;-63
2023/11/30 11:18:43;;;;;;;4.43;3.50;;;21.10;66.90;;;;;;5018259;28;20195;-65
2023/11/30 11:21:25;;;;;;;2.35;1.90;;;21.10;67.10;;;;;;5018871;28;20210;-67
2023/11/30 11:23:51;;;;;;;1.70;1.60;;;21.20;67.60;;;;;;5019863;28;20211;-67
2023/11/30 11:26:18;;;;;;;2.42;2.20;;;21.20;67.80;;;;;;5014783;28;21428;-69
2023/11/30 11:28:47;;;;;;;2.23;1.73;;;21.20;68.00;;;;;;5017941;28;20191;-69
2023/11/30 11:31:14;;;;;;;2.10;1.93;;;21.30;68.80;;;;;;5019727;28;20462;-67
2023/11/30 11:33:42;;;;;;;2.40;2.20;;;21.30;68.90;;;;;;5022562;28;20476;-64
2023/11/30 11:36:10;;;;;;;2.80;2.60;;;21.20;68.70;;;;;;5020882;28;20923;-63
2023/11/30 11:38:37;;;;;;;2.72;2.20;;;21.30;69.10;;;;;;5017088;28;20542;-61
2023/11/30 11:41:04;;;;;;;2.80;2.38;;;21.40;69.00;;;;;;5022708;28;20210;-62
2023/11/30 11:43:31;;;;;;;4.38;3.67;;;21.30;68.40;;;;;;5025957;28;20242;-63
2023/11/30 11:45:59;;;;;;;3.67;3.38;;;21.20;66.80;;;;;;5023969;28;20211;-62
2023/11/30 11:48:26;;;;;;;2.60;2.40;;;21.30;66.70;;;;;;5022961;28;20207;-63
2023/11/30 11:50:59;;;;;;;2.70;2.50;;;21.20;66.50;;;;;;4853473;28;20469;-62
2023/11/30 11:53:26;;;;;;;4.27;3.87;;;21.30;66.90;;;;;;4796008;28;20469;-63
2023/11/30 11:55:53;;;;;;;2.87;2.10;;;21.30;67.00;;;;;;4812777;28;20466;-62
2023/11/30 11:58:20;;;;;;;2.47;2.27;;;21.20;67.00;;;;;;4825478;28;20466;-60
2023/11/30 12:00:53;;;;;;;2.53;2.33;;;21.30;67.10;;;;;;4818856;28;21260;-62
2023/11/30 12:03:22;;;;;;;2.40;2.20;;;21.30;67.10;;;;;;4822789;28;20630;-59
2023/11/30 12:05:49;;;;;;;2.20;2.03;;;21.40;67.30;;;;;;4822509;28;20470;-58
2023/11/30 12:08:16;;;;;;;3.90;1.80;;;21.40;67.30;;;;;;4826787;28;20469;-64
2023/11/30 12:10:44;;;;;;;3.33;1.53;;;21.40;67.60;;;;;;4820307;28;20464;-63
2023/11/30 12:13:14;;;;;;;2.10;1.90;;;21.30;67.60;;;;;;4822669;28;20546;-61
2023/11/30 12:15:42;;;;;;;1.87;1.53;;;21.40;68.00;;;;;;4819759;28;20465;-63
2023/11/30 12:18:10;;;;;;;2.30;2.10;;;21.40;68.20;;;;;;4817419;28;20466;-62
2023/11/30 12:20:39;;;;;;;5.00;2.00;;;21.40;68.40;;;;;;5000114;28;20461;-63
2023/11/30 12:23:06;;;;;;;3.33;1.87;;;21.40;68.40;;;;;;5024155;28;21230;-66
2023/11/30 12:25:32;;;;;;;2.50;2.23;;;21.50;68.70;;;;;;5022709;28;20474;-64
2023/11/30 12:27:59;;;;;;;1.80;1.50;;;21.50;68.70;;;;;;5018455;28;20800;-63
2023/11/30 12:30:26;;;;;;;1.83;1.70;;;21.50;68.80;;;;;;5028032;28;20461;-64
2023/11/30 12:32:53;;;;;;;1.90;1.30;;;21.50;68.80;;;;;;5031881;28;20461;-64
2023/11/30 12:35:19;;;;;;;1.57;1.47;;;21.50;69.00;;;;;;5027122;28;20472;-62
2023/11/30 12:37:48;;;;;;;2.80;1.73;;;21.60;69.20;;;;;;5028780;28;20555;-63
2023/11/30 12:40:15;;;;;;;2.00;1.63;;;21.60;69.20;;;;;;5025392;28;20494;-63
2023/11/30 12:42:42;;;;;;;1.80;1.60;;;21.50;69.30;;;;;;5024936;28;20462;-64
2023/11/30 12:45:10;;;;;;;1.60;1.50;;;21.50;69.40;;;;;;5021263;28;20591;-62
2023/11/30 12:47:39;;;;;;;2.00;1.90;;;21.50;69.50;;;;;;5018079;28;20465;-63